createdAt,value
2018-03-16T00:01:57.952Z,4.96
2018-03-16T00:04:25.607Z,4.97
2018-03-16T00:06:53.149Z,5.00
2018-03-16T00:09:20.694Z,5.02
2018-03-16T00:11:48.298Z,4.97
2018-03-16T00:14:15.872Z,4.97
2018-03-16T00:16:43.449Z,4.95
2018-03-16T00:19:11.554Z,4.97
2018-03-16T00:21:39.215Z,4.95
2018-03-16T00:24:06.913Z,5.03
2018-03-16T00:26:34.506Z,5.06
2018-03-16T00:29:03.623Z,5.09
2018-03-16T00:31:31.267Z,5.10
2018-03-16T00:33:58.978Z,5.02
2018-03-16T00:36:26.539Z,5.03
2018-03-16T00:38:54.120Z,5.05
2018-03-16T00:41:21.700Z,5.10
2018-03-16T00:43:49.244Z,5.12
2018-03-16T00:46:16.814Z,5.14
2018-03-16T00:48:44.429Z,5.14
2018-03-16T00:51:12.981Z,5.14
2018-03-16T00:53:40.558Z,5.14
2018-03-16T00:56:08.306Z,5.08
2018-03-16T00:58:35.879Z,5.08
2018-03-16T01:01:03.442Z,5.11
2018-03-16T01:03:31.439Z,5.09
2018-03-16T01:05:59.088Z,5.10
2018-03-16T01:08:26.634Z,5.12
2018-03-16T01:10:54.201Z,5.13
2018-03-16T01:13:21.967Z,5.10
2018-03-16T01:15:49.514Z,5.09
2018-03-16T01:18:17.070Z,5.12
2018-03-16T01:20:46.593Z,5.12
2018-03-16T01:23:14.806Z,5.16
2018-03-16T01:25:42.401Z,5.18
2018-03-16T01:28:10.050Z,5.29
2018-03-16T01:30:37.696Z,5.26
2018-03-16T01:33:05.675Z,5.26
2018-03-16T01:35:33.236Z,5.24
2018-03-16T01:38:00.794Z,5.24
2018-03-16T01:40:28.381Z,5.24
2018-03-16T01:42:55.960Z,5.25
2018-03-16T01:45:23.532Z,5.35
2018-03-16T01:47:51.128Z,5.38
2018-03-16T01:50:18.690Z,5.45
2018-03-16T01:52:57.934Z,5.29
2018-03-16T01:55:26.810Z,5.30
2018-03-16T01:57:54.361Z,5.33
2018-03-16T02:00:21.962Z,5.30
2018-03-16T02:02:49.543Z,5.24
2018-03-16T02:05:19.403Z,5.31
2018-03-16T02:07:48.064Z,5.33
2018-03-16T02:10:15.686Z,5.36
2018-03-16T02:12:43.289Z,5.38
2018-03-16T02:15:11.307Z,5.29
2018-03-16T02:17:38.861Z,5.26
2018-03-16T02:20:06.505Z,5.31
2018-03-16T02:22:34.060Z,5.24
2018-03-16T02:25:01.654Z,5.26
2018-03-16T02:27:29.442Z,5.27
2018-03-16T02:29:57.009Z,5.19
2018-03-16T02:32:24.599Z,5.24
2018-03-16T02:34:52.151Z,5.08
2018-03-16T02:37:19.989Z,4.92
2018-03-16T02:39:47.571Z,4.87
2018-03-16T02:42:15.148Z,4.92
2018-03-16T02:44:42.726Z,4.89
2018-03-16T02:47:11.980Z,4.81
2018-03-16T02:49:39.631Z,4.72
2018-03-16T02:52:07.380Z,4.65
2018-03-16T02:54:34.967Z,4.76
2018-03-16T02:57:02.546Z,4.70
2018-03-16T02:59:30.128Z,4.78
2018-03-16T03:01:58.579Z,4.73
2018-03-16T03:04:26.268Z,4.63
2018-03-16T03:06:55.827Z,4.52
2018-03-16T03:09:23.649Z,4.47
2018-03-16T03:11:53.391Z,4.41
2018-03-16T03:14:20.950Z,4.33
2018-03-16T03:16:48.526Z,4.33
2018-03-16T03:19:20.633Z,4.41
2018-03-16T03:21:48.356Z,4.46
2018-03-16T03:24:18.884Z,4.58
2018-03-16T03:26:46.805Z,4.58
2018-03-16T03:29:14.908Z,4.57
2018-03-16T03:31:42.508Z,4.55
2018-03-16T03:34:10.072Z,4.58
2018-03-16T03:36:37.617Z,4.53
2018-03-16T03:39:05.214Z,4.55
2018-03-16T03:41:32.769Z,4.59
2018-03-16T03:44:00.899Z,4.58
2018-03-16T03:46:28.532Z,4.61
2018-03-16T03:48:56.103Z,4.65
2018-03-16T03:51:24.734Z,4.66
2018-03-16T03:53:54.616Z,4.80
2018-03-16T03:56:26.127Z,4.73
2018-03-16T03:58:55.875Z,4.69
2018-03-16T04:01:23.455Z,4.73
2018-03-16T04:03:51.026Z,4.64
2018-03-16T04:06:18.589Z,4.62
2018-03-16T04:08:46.171Z,4.68
2018-03-16T04:11:14.041Z,4.60
2018-03-16T04:13:41.570Z,4.49
2018-03-16T04:16:09.167Z,4.51
2018-03-16T04:18:36.765Z,4.55
2018-03-16T04:21:04.375Z,4.65
2018-03-16T04:23:31.937Z,4.75
2018-03-16T04:25:59.510Z,4.84
2018-03-16T04:28:27.101Z,4.83
2018-03-16T04:30:54.665Z,4.80
2018-03-16T04:33:22.223Z,4.63
2018-03-16T04:35:49.874Z,4.51
2018-03-16T04:38:17.608Z,4.50
2018-03-16T04:40:45.200Z,4.44
2018-03-16T04:43:12.920Z,4.42
2018-03-16T04:45:40.577Z,4.41
2018-03-16T04:48:08.173Z,4.44
2018-03-16T04:50:35.768Z,4.37
2018-03-16T04:53:03.350Z,4.34
2018-03-16T04:55:31.009Z,4.37
2018-03-16T04:57:58.577Z,4.41
2018-03-16T05:00:26.193Z,4.50
2018-03-16T05:02:53.786Z,4.57
2018-03-16T05:05:21.704Z,4.56
2018-03-16T05:07:49.302Z,4.54
2018-03-16T05:10:16.882Z,4.55
2018-03-16T05:12:44.434Z,4.54
2018-03-16T05:15:12.026Z,4.51
2018-03-16T05:17:39.789Z,4.52
2018-03-16T05:20:07.387Z,4.52
2018-03-16T05:22:34.937Z,4.53
2018-03-16T05:25:02.536Z,4.55
2018-03-16T05:27:30.496Z,4.48
2018-03-16T05:29:58.207Z,4.44
2018-03-16T05:32:27.332Z,4.49
2018-03-16T05:34:54.883Z,4.48
2018-03-16T05:37:22.441Z,4.43
2018-03-16T05:39:50.003Z,4.63
2018-03-16T05:42:17.555Z,4.77
2018-03-16T05:44:45.112Z,4.80
2018-03-16T05:47:12.780Z,4.84
2018-03-16T05:49:40.490Z,4.84
2018-03-16T05:52:08.059Z,4.81
2018-03-16T05:54:35.629Z,4.62
2018-03-16T05:57:03.276Z,4.47
2018-03-16T05:59:30.823Z,4.43
2018-03-16T06:01:58.674Z,4.55
2018-03-16T06:04:26.231Z,4.71
2018-03-16T06:06:53.797Z,4.73
2018-03-16T06:09:21.377Z,4.74
2018-03-16T06:11:48.931Z,4.88
2018-03-16T06:14:16.552Z,4.81
2018-03-16T06:16:44.108Z,4.85
2018-03-16T06:19:12.117Z,4.83
2018-03-16T06:21:39.835Z,4.86
2018-03-16T06:24:07.514Z,5.01
2018-03-16T06:26:35.079Z,5.09
2018-03-16T06:29:02.667Z,5.14
2018-03-16T06:31:30.473Z,5.22
2018-03-16T06:33:58.037Z,5.21
2018-03-16T06:36:25.584Z,5.20
2018-03-16T06:38:53.131Z,5.23
2018-03-16T06:41:20.728Z,5.06
2018-03-16T06:43:48.275Z,4.97
2018-03-16T06:46:15.992Z,5.08
2018-03-16T06:48:43.570Z,5.15
2018-03-16T06:51:11.469Z,5.28
2018-03-16T06:53:39.013Z,5.16
2018-03-16T06:56:06.601Z,5.03
2018-03-16T06:58:34.165Z,5.12
2018-03-16T07:01:01.769Z,5.12
2018-03-16T07:03:30.211Z,5.22
2018-03-16T07:05:57.780Z,5.22
2018-03-16T07:08:26.961Z,5.23
2018-03-16T07:10:54.958Z,5.29
2018-03-16T07:15:57.254Z,5.38
2018-03-16T07:18:24.807Z,5.21
2018-03-16T07:20:52.403Z,5.25
2018-03-16T07:23:21.415Z,5.18
2018-03-16T07:25:49.009Z,5.16
2018-03-16T07:28:16.581Z,5.08
2018-03-16T07:30:44.148Z,5.09
2018-03-16T07:33:12.620Z,5.09
2018-03-16T07:35:40.875Z,4.99
2018-03-16T07:38:11.412Z,4.94
2018-03-16T07:40:39.027Z,4.97
2018-03-16T07:43:06.935Z,5.07
2018-03-16T07:45:40.590Z,5.11
2018-03-16T07:48:08.166Z,5.18
2018-03-16T07:50:35.750Z,5.28
2018-03-16T07:53:06.754Z,5.27
2018-03-16T07:55:35.337Z,5.32
2018-03-16T07:58:05.983Z,5.37
2018-03-16T08:00:33.684Z,5.37
2018-03-16T08:03:01.249Z,5.41
2018-03-16T08:05:28.888Z,5.48
2018-03-16T08:07:56.486Z,5.56
2018-03-16T08:10:24.016Z,5.70
2018-03-16T08:12:51.564Z,5.77
2018-03-16T08:15:19.232Z,5.87
2018-03-16T08:17:46.728Z,5.96
2018-03-16T08:20:14.283Z,6.08
2018-03-16T08:22:41.834Z,6.30
2018-03-16T08:25:09.677Z,6.44
2018-03-16T08:27:37.236Z,6.50
2018-03-16T08:30:04.731Z,6.55
2018-03-16T08:32:32.230Z,6.58
2018-03-16T08:34:59.732Z,6.75
2018-03-16T08:37:28.402Z,6.88
2018-03-16T08:39:55.923Z,7.00
2018-03-16T08:42:24.486Z,7.06
2018-03-16T08:44:51.983Z,6.87
2018-03-16T08:47:19.790Z,6.60
2018-03-16T08:49:47.368Z,6.50
2018-03-16T08:52:14.960Z,6.39
2018-03-16T08:54:42.601Z,6.41
2018-03-16T08:57:10.998Z,6.36
2018-03-16T08:59:38.731Z,6.45
2018-03-16T09:02:06.286Z,6.49
2018-03-16T09:04:33.856Z,6.60
2018-03-16T09:07:01.430Z,6.65
2018-03-16T09:09:29.781Z,6.59
2018-03-16T09:11:57.371Z,6.64
2018-03-16T09:14:26.324Z,6.58
2018-03-16T09:16:53.913Z,6.84
2018-03-16T09:19:21.461Z,6.86
2018-03-16T09:21:49.039Z,6.96
2018-03-16T09:24:16.782Z,7.03
2018-03-16T09:26:44.346Z,6.95
2018-03-16T09:29:12.673Z,6.94
2018-03-16T09:31:40.267Z,6.77
2018-03-16T09:34:07.846Z,6.71
2018-03-16T09:36:35.431Z,6.62
2018-03-16T09:39:03.037Z,6.58
2018-03-16T09:41:31.553Z,6.43
2018-03-16T09:43:59.121Z,6.35
2018-03-16T09:46:26.722Z,6.30
2018-03-16T09:48:54.291Z,6.43
2018-03-16T09:51:21.848Z,6.47
2018-03-16T09:53:49.424Z,6.42
2018-03-16T09:56:16.994Z,6.30
2018-03-16T09:58:44.582Z,6.25
2018-03-16T10:01:12.152Z,6.24
2018-03-16T10:03:39.657Z,6.26
2018-03-16T10:06:07.245Z,6.32
2018-03-16T10:08:34.813Z,6.21
2018-03-16T10:11:02.370Z,6.35
2018-03-16T10:13:30.693Z,6.48
2018-03-16T10:15:58.320Z,6.51
2018-03-16T10:18:25.896Z,6.53
2018-03-16T10:20:53.499Z,6.46
2018-03-16T10:23:21.349Z,6.58
2018-03-16T10:25:49.066Z,6.69
2018-03-16T10:28:16.648Z,6.81
2018-03-16T10:30:44.227Z,6.84
2018-03-16T10:33:11.829Z,6.91
2018-03-16T10:35:40.209Z,6.77
2018-03-16T10:38:07.786Z,6.80
2018-03-16T10:40:35.514Z,6.86
2018-03-16T10:43:03.119Z,6.88
2018-03-16T10:45:30.851Z,6.80
2018-03-16T10:47:58.437Z,6.90
2018-03-16T10:50:26.006Z,6.86
2018-03-16T10:52:53.580Z,6.84
2018-03-16T10:55:21.348Z,6.79
2018-03-16T10:57:48.943Z,6.71
2018-03-16T11:00:22.476Z,6.70
2018-03-16T11:02:51.863Z,6.69
2018-03-16T11:05:32.468Z,6.63
2018-03-16T11:08:06.705Z,6.70
2018-03-16T11:10:34.355Z,6.83
2018-03-16T11:13:01.917Z,6.93
2018-03-16T11:15:30.572Z,7.08
2018-03-16T11:18:05.456Z,7.26
2018-03-16T11:20:33.380Z,7.52
2018-03-16T11:23:00.956Z,7.62
2018-03-16T11:25:29.144Z,7.83
2018-03-16T11:27:59.818Z,8.00
2018-03-16T11:30:27.857Z,8.10
2018-03-16T11:32:55.406Z,8.09
2018-03-16T11:35:23.537Z,8.29
2018-03-16T11:37:51.101Z,8.27
2018-03-16T11:40:22.188Z,8.25
2018-03-16T11:42:49.750Z,8.15
2018-03-16T11:45:17.520Z,8.08
2018-03-16T11:47:45.365Z,8.21
2018-03-16T11:50:15.659Z,8.27
2018-03-16T11:52:44.407Z,8.35
2018-03-16T11:55:12.421Z,8.35
2018-03-16T11:57:40.019Z,8.48
2018-03-16T12:00:10.433Z,8.48
2018-03-16T12:02:38.029Z,8.31
2018-03-16T12:05:05.637Z,8.29
2018-03-16T12:07:33.216Z,8.32
2018-03-16T12:10:00.815Z,8.35
2018-03-16T12:12:28.399Z,8.49
2018-03-16T12:14:55.984Z,8.39
2018-03-16T12:17:23.603Z,8.26
2018-03-16T12:19:51.201Z,8.32
2018-03-16T12:22:18.792Z,8.40
2018-03-16T12:24:46.374Z,8.46
2018-03-16T12:27:14.027Z,8.68
2018-03-16T12:29:41.641Z,8.57
2018-03-16T12:32:09.245Z,8.49
2018-03-16T12:34:36.921Z,8.62
2018-03-16T12:37:04.496Z,8.59
2018-03-16T12:39:33.107Z,8.56
2018-03-16T12:42:00.686Z,8.59
2018-03-16T12:44:28.257Z,8.61
2018-03-16T12:46:55.889Z,8.53
2018-03-16T12:49:23.462Z,8.35
2018-03-16T12:51:51.067Z,8.42
2018-03-16T12:54:18.654Z,8.47
2018-03-16T12:56:46.234Z,8.61
2018-03-16T12:59:13.841Z,8.80
2018-03-16T13:01:41.413Z,8.62
2018-03-16T13:04:09.159Z,8.86
2018-03-16T13:06:36.737Z,8.97
2018-03-16T13:09:04.535Z,9.01
2018-03-16T13:11:34.228Z,9.20
2018-03-16T13:14:01.848Z,9.25
2018-03-16T13:16:29.415Z,9.48
2018-03-16T13:18:57.020Z,9.47
2018-03-16T13:21:24.606Z,9.44
2018-03-16T13:23:52.350Z,9.46
2018-03-16T13:26:19.948Z,9.47
2018-03-16T13:28:47.535Z,9.61
2018-03-16T13:31:15.529Z,9.42
2018-03-16T13:33:43.125Z,9.13
2018-03-16T13:36:10.982Z,8.99
2018-03-16T13:38:38.884Z,8.92
2018-03-16T13:41:06.710Z,8.89
2018-03-16T13:43:34.692Z,8.76
2018-03-16T13:46:02.653Z,8.80
2018-03-16T13:48:30.474Z,8.97
2018-03-16T13:50:58.058Z,9.29
2018-03-16T13:53:27.220Z,9.34
2018-03-16T13:55:54.854Z,9.38
2018-03-16T13:58:22.541Z,9.32
2018-03-16T14:00:50.134Z,9.11
2018-03-16T14:03:17.885Z,9.08
2018-03-16T14:05:45.607Z,9.03
2018-03-16T14:08:13.191Z,8.82
2018-03-16T14:10:40.747Z,8.69
2018-03-16T14:13:08.628Z,8.67
2018-03-16T14:15:36.339Z,8.65
2018-03-16T14:18:04.093Z,8.50
2018-03-16T14:20:32.243Z,8.45
2018-03-16T14:22:59.902Z,8.47
2018-03-16T14:25:27.606Z,8.49
2018-03-16T14:27:55.293Z,8.49
2018-03-16T14:30:22.831Z,8.42
2018-03-16T14:32:50.394Z,8.44
2018-03-16T14:35:18.228Z,8.40
2018-03-16T14:37:45.862Z,8.55
2018-03-16T14:40:13.570Z,8.92
2018-03-16T14:42:41.172Z,9.49
2018-03-16T14:45:08.789Z,9.86
2018-03-16T14:47:36.390Z,10.84
2018-03-16T14:50:04.020Z,11.08
2018-03-16T14:52:31.576Z,10.39
2018-03-16T14:54:59.214Z,10.23
2018-03-16T14:57:27.285Z,9.80
2018-03-16T14:59:55.047Z,9.84
2018-03-16T15:02:23.235Z,9.93
2018-03-16T15:04:56.721Z,9.81
2018-03-16T15:07:26.415Z,9.65
2018-03-16T15:09:57.772Z,9.44
2018-03-16T15:12:25.331Z,9.21
2018-03-16T15:14:55.660Z,9.12
2018-03-16T15:17:24.049Z,9.13
2018-03-16T15:19:55.809Z,9.27
2018-03-16T15:22:23.815Z,9.86
2018-03-16T15:25:02.136Z,10.33
2018-03-16T15:27:30.986Z,9.87
2018-03-16T15:29:59.868Z,9.37
2018-03-16T15:32:27.516Z,9.40
2018-03-16T15:34:58.170Z,9.55
2018-03-16T15:37:31.296Z,9.62
2018-03-16T15:40:06.519Z,9.57
2018-03-16T15:42:34.632Z,9.63
2018-03-16T15:45:02.285Z,10.20
2018-03-16T15:47:30.000Z,10.00
2018-03-16T15:50:00.194Z,10.09
2018-03-16T15:52:27.831Z,9.94
2018-03-16T15:54:58.797Z,10.01
2018-03-16T15:57:27.092Z,10.40
2018-03-16T15:59:55.025Z,10.78
2018-03-16T16:02:23.948Z,10.49
2018-03-16T16:04:51.546Z,10.11
2018-03-16T16:07:19.360Z,9.69
2018-03-16T16:09:46.972Z,9.34
2018-03-16T16:12:14.577Z,9.07
2018-03-16T16:14:42.246Z,8.96
2018-03-16T16:17:10.309Z,8.72
2018-03-16T16:19:38.019Z,8.56
2018-03-16T16:22:05.623Z,8.48
2018-03-16T16:24:33.196Z,8.22
2018-03-16T16:27:00.771Z,8.04
2018-03-16T16:29:28.778Z,7.75
2018-03-16T16:31:56.454Z,7.61
2018-03-16T16:34:25.541Z,7.58
2018-03-16T16:36:53.176Z,7.57
2018-03-16T16:39:21.075Z,7.52
2018-03-16T16:41:48.719Z,7.50
2018-03-16T16:44:16.338Z,7.48
2018-03-16T16:46:43.906Z,7.43
2018-03-16T16:49:11.941Z,7.44
2018-03-16T16:51:39.525Z,7.46
2018-03-16T16:54:07.140Z,7.47
2018-03-16T16:56:34.765Z,7.47
2018-03-16T16:59:02.326Z,7.46
2018-03-16T17:01:29.995Z,7.44
2018-03-16T17:03:57.571Z,7.39
2018-03-16T17:06:26.202Z,7.26
2018-03-16T17:08:54.150Z,7.27
2018-03-16T17:11:21.733Z,7.27
2018-03-16T17:13:49.306Z,7.25
2018-03-16T17:16:22.912Z,7.17
2018-03-16T17:21:40.505Z,7.15
2018-03-16T17:24:08.090Z,7.08
2018-03-16T17:26:36.171Z,7.01
2018-03-16T17:29:03.818Z,6.86
2018-03-16T17:31:31.454Z,6.75
2018-03-16T17:33:59.045Z,6.64
2018-03-16T17:36:28.147Z,6.56
2018-03-16T17:38:55.760Z,6.51
2018-03-16T17:41:25.962Z,6.50
2018-03-16T17:43:59.432Z,6.51
2018-03-16T17:46:27.322Z,6.48
2018-03-16T17:48:54.915Z,6.46
2018-03-16T17:51:22.543Z,6.49
2018-03-16T17:53:50.155Z,6.45
2018-03-16T17:56:17.782Z,6.38
2018-03-16T17:58:45.398Z,6.34
2018-03-16T18:01:12.990Z,6.37
2018-03-16T18:03:40.593Z,6.31
2018-03-16T18:06:09.005Z,6.22
2018-03-16T18:08:36.623Z,6.19
2018-03-16T18:11:04.220Z,6.17
2018-03-16T18:13:32.375Z,6.13
2018-03-16T18:15:59.992Z,6.12
2018-03-16T18:18:27.574Z,6.08
2018-03-16T18:20:55.141Z,6.08
2018-03-16T18:25:56.283Z,6.20
2018-03-16T18:28:24.515Z,6.24
2018-03-16T18:30:52.138Z,6.28
2018-03-16T18:33:20.148Z,6.20
2018-03-16T18:35:47.728Z,6.12
2018-03-16T18:38:15.298Z,6.11
2018-03-16T18:40:42.892Z,6.12
2018-03-16T18:43:11.315Z,6.06
2018-03-16T18:45:38.927Z,6.04
2018-03-16T18:48:06.540Z,6.06
2018-03-16T18:50:34.226Z,6.00
2018-03-16T18:53:01.830Z,5.99
2018-03-16T18:55:29.869Z,5.99
2018-03-16T18:57:57.457Z,5.95
2018-03-16T19:00:25.208Z,5.92
2018-03-16T19:02:52.805Z,5.91
2018-03-16T19:05:20.454Z,5.92
2018-03-16T19:07:53.871Z,5.95
2018-03-16T19:10:21.922Z,6.00
2018-03-16T19:12:52.745Z,5.93
2018-03-16T19:15:20.339Z,5.90
2018-03-16T19:17:52.107Z,5.88
2018-03-16T19:20:19.795Z,5.86
2018-03-16T19:22:48.610Z,5.83
2018-03-16T19:25:19.130Z,5.76
2018-03-16T19:27:46.764Z,5.69
2018-03-16T19:30:14.343Z,5.57
2018-03-16T19:32:41.929Z,5.48
2018-03-16T19:35:10.233Z,5.44
2018-03-16T19:37:37.841Z,5.33
2018-03-16T19:40:06.575Z,5.27
2018-03-16T19:42:34.166Z,5.22
2018-03-16T19:45:04.097Z,5.18
2018-03-16T19:47:32.573Z,5.14
2018-03-16T19:50:00.129Z,5.14
2018-03-16T19:52:27.685Z,5.11
2018-03-16T19:54:55.306Z,5.10
2018-03-16T19:57:23.499Z,5.04
2018-03-16T19:59:54.692Z,4.90
2018-03-16T20:02:24.173Z,4.84
2018-03-16T20:04:51.742Z,4.79
2018-03-16T20:07:19.371Z,4.72
2018-03-16T20:09:46.977Z,4.60
2018-03-16T20:12:14.699Z,4.53
2018-03-16T20:14:42.262Z,4.48
2018-03-16T20:17:10.611Z,4.54
2018-03-16T20:19:38.153Z,4.51
2018-03-16T20:22:05.861Z,4.47
2018-03-16T20:24:33.426Z,4.46
2018-03-16T20:27:01.027Z,4.37
2018-03-16T20:29:29.245Z,4.30
2018-03-16T20:31:56.849Z,4.20
2018-03-16T20:34:26.188Z,4.07
2018-03-16T20:36:53.792Z,3.96
2018-03-16T20:39:22.495Z,3.89
2018-03-16T20:41:50.166Z,3.81
2018-03-16T20:44:17.715Z,3.74
2018-03-16T20:46:45.308Z,3.81
2018-03-16T20:49:13.983Z,3.79
2018-03-16T20:51:41.683Z,3.65
2018-03-16T20:54:09.575Z,3.53
2018-03-16T20:56:37.272Z,3.47
2018-03-16T20:59:04.833Z,3.33
2018-03-16T21:01:32.408Z,3.24
2018-03-16T21:03:59.982Z,3.26
2018-03-16T21:06:28.033Z,3.24
2018-03-16T21:08:55.586Z,3.25
2018-03-16T21:11:23.167Z,3.44
2018-03-16T21:13:50.729Z,3.40
2018-03-16T21:16:18.290Z,3.34
2018-03-16T21:18:45.884Z,3.31
2018-03-16T21:21:13.439Z,3.30
2018-03-16T21:23:41.000Z,3.29
2018-03-16T21:26:08.614Z,3.29
2018-03-16T21:28:36.227Z,3.32
2018-03-16T21:31:03.803Z,3.35
2018-03-16T21:33:32.554Z,3.37
2018-03-16T21:36:00.204Z,3.33
2018-03-16T21:38:27.776Z,3.23
2018-03-16T21:40:55.342Z,3.15
2018-03-16T21:43:22.951Z,3.13
2018-03-16T21:45:50.559Z,3.10
2018-03-16T21:48:18.124Z,3.02
2018-03-16T21:50:45.694Z,2.99
2018-03-16T21:53:13.424Z,2.95
2018-03-16T21:55:41.042Z,2.91
2018-03-16T21:58:08.721Z,2.88
2018-03-16T22:00:36.289Z,2.80
2018-03-16T22:03:03.884Z,2.74
2018-03-16T22:05:31.552Z,2.64
2018-03-16T22:07:59.159Z,2.69
2018-03-16T22:10:26.706Z,2.69
2018-03-16T22:12:54.283Z,2.63
2018-03-16T22:15:23.322Z,2.59
2018-03-16T22:17:51.058Z,2.51
2018-03-16T22:20:19.104Z,2.47
2018-03-16T22:22:46.712Z,2.46
2018-03-16T22:25:14.881Z,2.40
2018-03-16T22:27:42.470Z,2.41
2018-03-16T22:30:10.290Z,2.41
2018-03-16T22:32:37.876Z,2.39
2018-03-16T22:35:07.824Z,2.35
2018-03-16T22:37:35.479Z,2.34
2018-03-16T22:40:03.060Z,2.35
2018-03-16T22:42:30.694Z,2.38
2018-03-16T22:44:58.258Z,2.41
2018-03-16T22:47:25.862Z,2.42
2018-03-16T22:49:53.456Z,2.32
2018-03-16T22:52:21.037Z,2.26
2018-03-16T22:54:48.664Z,2.22
2018-03-16T22:57:17.709Z,2.14
2018-03-16T22:59:45.364Z,2.06
2018-03-16T23:02:14.934Z,2.18
2018-03-16T23:04:43.206Z,2.20
2018-03-16T23:07:22.980Z,2.24
2018-03-16T23:09:50.669Z,2.21
2018-03-16T23:12:18.231Z,2.27
2018-03-16T23:14:45.813Z,2.30
2018-03-16T23:17:17.549Z,2.29
2018-03-16T23:19:45.888Z,2.42
2018-03-16T23:22:16.941Z,2.54
2018-03-16T23:24:47.550Z,2.55
2018-03-16T23:27:19.997Z,2.47
2018-03-16T23:29:47.568Z,2.34
2018-03-16T23:32:18.725Z,2.27
2018-03-16T23:34:46.374Z,2.29
2018-03-16T23:37:14.573Z,2.33
2018-03-16T23:39:42.152Z,2.36
2018-03-16T23:42:09.737Z,2.40
2018-03-16T23:44:37.980Z,2.41
2018-03-16T23:47:06.400Z,2.53
2018-03-16T23:49:34.021Z,2.54
2018-03-16T23:52:01.751Z,2.55
2018-03-16T23:54:31.150Z,2.58
2018-03-16T23:56:58.747Z,2.60
2018-03-16T23:59:26.311Z,2.66
